createdAt,value
2019-04-27T00:00:53.498Z,0.00
2019-04-27T00:01:51.499Z,0.00
2019-04-27T00:02:51.517Z,0.00
2019-04-27T00:03:51.476Z,0.00
2019-04-27T00:04:52.812Z,0.00
2019-04-27T00:05:51.453Z,0.00
2019-04-27T00:06:51.441Z,0.00
2019-04-27T00:07:55.513Z,0.00
2019-04-27T00:08:53.504Z,0.00
2019-04-27T00:09:51.885Z,0.00
2019-04-27T00:10:51.401Z,0.00
2019-04-27T00:11:53.123Z,0.00
2019-04-27T00:12:52.958Z,0.00
2019-04-27T00:13:51.376Z,0.00
2019-04-27T00:14:53.002Z,0.00
2019-04-27T00:15:51.344Z,0.00
2019-04-27T00:16:51.354Z,0.00
2019-04-27T00:17:54.312Z,0.00
2019-04-27T00:18:56.420Z,0.00
2019-04-27T00:19:53.422Z,0.00
2019-04-27T00:20:51.293Z,0.00
2019-04-27T00:21:52.844Z,0.00
2019-04-27T00:22:51.272Z,0.00
2019-04-27T00:23:51.263Z,0.00
2019-04-27T00:24:52.902Z,0.00
2019-04-27T00:25:52.762Z,0.00
2019-04-27T00:26:51.231Z,0.00
2019-04-27T00:27:51.216Z,0.00
2019-04-27T00:28:51.213Z,0.00
2019-04-27T00:29:51.195Z,0.00
2019-04-27T00:30:52.759Z,0.00
2019-04-27T00:31:51.198Z,0.00
2019-04-27T00:32:51.153Z,0.00
2019-04-27T00:33:51.150Z,0.00
2019-04-27T00:34:51.143Z,0.00
2019-04-27T00:35:51.127Z,0.00
2019-04-27T00:36:51.139Z,0.00
2019-04-27T00:37:52.940Z,4.00
2019-04-27T00:38:51.093Z,4.00
2019-04-27T00:39:51.102Z,4.00
2019-04-27T00:40:51.082Z,4.00
2019-04-27T00:41:51.073Z,4.00
2019-04-27T00:42:51.049Z,4.00
2019-04-27T00:43:51.049Z,4.00
2019-04-27T00:44:51.139Z,0.00
2019-04-27T00:45:51.023Z,0.00
2019-04-27T00:46:51.003Z,0.00
2019-04-27T00:47:57.434Z,0.00
2019-04-27T00:48:53.398Z,0.00
2019-04-27T00:49:52.613Z,0.00
2019-04-27T00:50:52.796Z,0.00
2019-04-27T00:51:50.948Z,0.00
2019-04-27T00:52:50.943Z,0.00
2019-04-27T00:53:50.933Z,0.00
2019-04-27T00:54:50.921Z,0.00
2019-04-27T00:55:50.945Z,0.00
2019-04-27T00:56:50.897Z,0.00
2019-04-27T00:57:50.899Z,0.00
2019-04-27T00:58:50.880Z,0.00
2019-04-27T00:59:50.873Z,0.00
2019-04-27T01:00:50.851Z,0.00
2019-04-27T01:01:50.865Z,0.00
2019-04-27T01:02:50.836Z,0.00
2019-04-27T01:03:50.848Z,0.00
2019-04-27T01:04:50.816Z,0.00
2019-04-27T01:05:50.808Z,0.00
2019-04-27T01:06:50.795Z,0.00
2019-04-27T01:07:50.798Z,0.00
2019-04-27T01:08:50.773Z,0.00
2019-04-27T01:09:50.758Z,0.00
2019-04-27T01:10:50.770Z,0.00
2019-04-27T01:11:50.766Z,0.00
2019-04-27T01:12:50.771Z,0.00
2019-04-27T01:13:50.728Z,0.00
2019-04-27T01:14:50.722Z,0.00
2019-04-27T01:15:50.702Z,0.00
2019-04-27T01:16:51.495Z,0.00
2019-04-27T01:17:50.698Z,0.00
2019-04-27T01:18:50.678Z,0.00
2019-04-27T01:19:50.651Z,0.00
2019-04-27T01:20:50.640Z,0.00
2019-04-27T01:21:50.627Z,0.00
2019-04-27T01:22:50.627Z,0.00
2019-04-27T01:23:50.636Z,0.00
2019-04-27T01:24:50.593Z,0.00
2019-04-27T01:25:51.042Z,0.00
2019-04-27T01:26:50.570Z,0.00
2019-04-27T01:27:50.563Z,0.00
2019-04-27T01:28:50.557Z,0.00
2019-04-27T01:29:50.565Z,0.00
2019-04-27T01:30:50.538Z,0.00
2019-04-27T01:31:50.521Z,0.00
2019-04-27T01:32:50.514Z,0.00
2019-04-27T01:33:50.501Z,0.00
2019-04-27T01:34:50.538Z,0.00
2019-04-27T01:35:50.493Z,0.00
2019-04-27T01:36:50.475Z,0.00
2019-04-27T01:37:50.461Z,0.00
2019-04-27T01:38:50.466Z,0.00
2019-04-27T01:39:50.550Z,0.00
2019-04-27T01:40:50.449Z,0.00
2019-04-27T01:41:50.409Z,0.00
2019-04-27T01:42:50.410Z,0.00
2019-04-27T01:43:50.388Z,0.00
2019-04-27T01:44:51.055Z,0.00
2019-04-27T01:45:50.371Z,0.00
2019-04-27T01:46:50.433Z,0.00
2019-04-27T01:47:50.353Z,0.00
2019-04-27T01:48:50.340Z,0.00
2019-04-27T01:49:50.340Z,0.00
2019-04-27T01:50:50.315Z,0.00
2019-04-27T01:51:50.306Z,0.00
2019-04-27T01:52:50.311Z,0.00
2019-04-27T01:53:50.277Z,0.00
2019-04-27T01:54:50.273Z,0.00
2019-04-27T01:55:50.261Z,0.00
2019-04-27T01:56:50.252Z,0.00
2019-04-27T01:57:50.248Z,0.00
2019-04-27T01:58:50.242Z,0.00
2019-04-27T01:59:50.216Z,0.00
2019-04-27T02:00:50.214Z,0.00
2019-04-27T02:01:50.224Z,0.00
2019-04-27T02:02:50.180Z,0.00
2019-04-27T02:03:50.188Z,0.00
2019-04-27T02:04:50.158Z,0.00
2019-04-27T02:05:50.152Z,0.00
2019-04-27T02:06:50.148Z,0.00
2019-04-27T02:07:50.124Z,0.00
2019-04-27T02:08:50.137Z,0.00
2019-04-27T02:09:50.123Z,0.00
2019-04-27T02:10:50.097Z,0.00
2019-04-27T02:11:50.081Z,0.00
2019-04-27T02:12:50.075Z,0.00
2019-04-27T02:13:50.978Z,0.00
2019-04-27T02:14:50.070Z,0.00
2019-04-27T02:15:50.048Z,0.00
2019-04-27T02:16:50.030Z,0.00
2019-04-27T02:17:51.049Z,0.00
2019-04-27T02:18:50.045Z,0.00
2019-04-27T02:19:50.025Z,0.00
2019-04-27T02:20:49.985Z,0.00
2019-04-27T02:21:51.580Z,0.00
2019-04-27T02:22:50.766Z,0.00
2019-04-27T02:23:49.957Z,0.00
2019-04-27T02:24:49.948Z,0.00
2019-04-27T02:25:49.955Z,0.00
2019-04-27T02:26:49.929Z,0.00
2019-04-27T02:27:49.906Z,0.00
2019-04-27T02:28:49.893Z,0.00
2019-04-27T02:29:50.464Z,0.00
2019-04-27T02:30:49.951Z,0.00
2019-04-27T02:31:50.121Z,0.00
2019-04-27T02:32:49.957Z,0.00
2019-04-27T02:33:50.143Z,0.00
2019-04-27T02:34:50.421Z,0.00
2019-04-27T02:35:50.636Z,0.00
2019-04-27T02:36:50.307Z,0.00
2019-04-27T02:37:50.268Z,0.00
2019-04-27T02:38:49.797Z,0.00
2019-04-27T02:39:50.163Z,0.00
2019-04-27T02:40:49.868Z,0.00
2019-04-27T02:41:51.928Z,0.00
2019-04-27T02:42:50.413Z,0.00
2019-04-27T02:43:49.972Z,0.00
2019-04-27T02:44:49.746Z,0.00
2019-04-27T02:45:50.376Z,0.00
2019-04-27T02:46:50.357Z,0.00
2019-04-27T02:47:51.968Z,0.00
2019-04-27T02:48:58.866Z,0.00
2019-04-27T02:49:51.110Z,0.00
2019-04-27T02:50:50.050Z,0.00
2019-04-27T02:51:49.733Z,0.00
2019-04-27T02:52:50.166Z,0.00
2019-04-27T02:53:49.876Z,0.00
2019-04-27T02:54:50.577Z,0.00
2019-04-27T02:55:50.042Z,0.00
2019-04-27T02:56:50.618Z,0.00
2019-04-27T02:57:50.100Z,0.00
2019-04-27T02:58:49.821Z,0.00
2019-04-27T02:59:50.422Z,0.00
2019-04-27T03:00:50.243Z,0.00
2019-04-27T03:01:50.394Z,0.00
2019-04-27T03:02:51.054Z,0.00
2019-04-27T03:03:50.300Z,0.00
2019-04-27T03:04:50.034Z,0.00
2019-04-27T03:05:50.337Z,0.00
2019-04-27T03:06:50.053Z,0.00
2019-04-27T03:07:50.291Z,0.00
2019-04-27T03:08:53.907Z,0.00
2019-04-27T03:09:51.013Z,0.00
2019-04-27T03:10:50.292Z,0.00
2019-04-27T03:11:50.071Z,0.00
2019-04-27T03:12:50.109Z,0.00
2019-04-27T03:13:51.948Z,0.00
2019-04-27T03:14:50.624Z,0.00
2019-04-27T03:15:49.809Z,0.00
2019-04-27T03:16:49.674Z,0.00
2019-04-27T03:17:49.547Z,0.00
2019-04-27T03:18:50.802Z,0.00
2019-04-27T03:19:52.027Z,0.00
2019-04-27T03:20:50.330Z,0.00
2019-04-27T03:21:49.606Z,0.00
2019-04-27T03:22:49.942Z,0.00
2019-04-27T03:23:50.153Z,0.00
2019-04-27T03:24:49.890Z,0.00
2019-04-27T03:25:50.609Z,0.00
2019-04-27T03:26:50.020Z,0.00
2019-04-27T03:27:50.249Z,4.00
2019-04-27T03:28:50.239Z,4.00
2019-04-27T03:29:49.991Z,4.00
2019-04-27T03:30:52.041Z,4.00
2019-04-27T03:31:54.056Z,4.00
2019-04-27T03:32:55.464Z,4.00
2019-04-27T03:33:57.860Z,8.00
2019-04-27T03:34:52.406Z,4.00
2019-04-27T03:35:52.469Z,8.00
2019-04-27T03:36:49.347Z,8.00
2019-04-27T03:37:50.117Z,12.00
2019-04-27T03:38:49.839Z,12.00
2019-04-27T03:39:49.871Z,16.00
2019-04-27T03:40:50.736Z,16.00
2019-04-27T03:41:52.355Z,16.00
2019-04-27T03:42:50.077Z,20.00
2019-04-27T03:43:50.326Z,20.00
2019-04-27T03:44:50.221Z,24.00
2019-04-27T03:45:51.786Z,28.00
2019-04-27T03:46:49.712Z,28.00
2019-04-27T03:47:50.410Z,32.00
2019-04-27T03:48:49.694Z,40.00
2019-04-27T03:49:50.595Z,40.00
2019-04-27T03:50:50.680Z,48.00
2019-04-27T03:51:49.960Z,52.00
2019-04-27T03:52:49.912Z,56.00
2019-04-27T03:53:49.723Z,60.00
2019-04-27T03:54:50.337Z,64.00
2019-04-27T03:55:50.178Z,68.00
2019-04-27T03:56:50.768Z,76.00
2019-04-27T03:57:49.840Z,84.00
2019-04-27T03:58:49.529Z,92.00
2019-04-27T03:59:50.616Z,96.00
2019-04-27T04:00:49.495Z,104.00
2019-04-27T04:01:50.628Z,108.00
2019-04-27T04:02:50.211Z,120.00
2019-04-27T04:03:50.131Z,128.00
2019-04-27T04:04:50.711Z,140.00
2019-04-27T04:05:49.530Z,152.00
2019-04-27T04:06:49.498Z,168.00
2019-04-27T04:07:50.330Z,176.00
2019-04-27T04:08:50.570Z,184.00
2019-04-27T04:09:50.280Z,200.00
2019-04-27T04:10:49.558Z,224.00
2019-04-27T04:11:49.174Z,252.00
2019-04-27T04:12:50.051Z,276.00
2019-04-27T04:13:49.445Z,300.00
2019-04-27T04:14:49.353Z,308.00
2019-04-27T04:15:49.818Z,316.00
2019-04-27T04:16:49.697Z,336.00
2019-04-27T04:17:49.621Z,368.00
2019-04-27T04:18:49.860Z,376.00
2019-04-27T04:19:57.166Z,380.00
2019-04-27T04:20:50.503Z,372.00
2019-04-27T04:21:50.340Z,400.00
2019-04-27T04:22:51.219Z,432.00
2019-04-27T04:23:49.466Z,440.00
2019-04-27T04:24:50.534Z,460.00
2019-04-27T04:25:50.014Z,472.00
2019-04-27T04:26:50.309Z,472.00
2019-04-27T04:27:50.687Z,504.00
2019-04-27T04:28:50.043Z,520.00
2019-04-27T04:29:49.261Z,540.00
2019-04-27T04:30:50.149Z,560.00
2019-04-27T04:31:50.373Z,604.00
2019-04-27T04:32:51.685Z,668.00
2019-04-27T04:33:49.242Z,696.00
2019-04-27T04:34:50.271Z,708.00
2019-04-27T04:35:49.742Z,728.00
2019-04-27T04:36:50.390Z,728.00
2019-04-27T04:37:49.621Z,696.00
2019-04-27T04:38:50.479Z,688.00
2019-04-27T04:39:53.076Z,680.00
2019-04-27T04:40:50.294Z,712.00
2019-04-27T04:41:50.959Z,724.00
2019-04-27T04:42:50.018Z,720.00
2019-04-27T04:43:49.041Z,716.00
2019-04-27T04:44:50.217Z,712.00
2019-04-27T04:45:50.084Z,724.00
2019-04-27T04:46:50.123Z,720.00
2019-04-27T04:47:49.707Z,720.00
2019-04-27T04:48:50.312Z,712.00
2019-04-27T04:49:54.581Z,724.00
2019-04-27T04:50:50.179Z,764.00
2019-04-27T04:51:50.342Z,816.00
2019-04-27T04:52:49.970Z,856.00
2019-04-27T04:53:48.841Z,896.00
2019-04-27T04:54:49.596Z,964.00
2019-04-27T04:55:48.939Z,1016.00
2019-04-27T04:56:49.319Z,1024.00
2019-04-27T04:57:49.293Z,1068.00
2019-04-27T04:58:49.706Z,1152.00
2019-04-27T04:59:49.383Z,1252.00
2019-04-27T05:00:50.227Z,1336.00
2019-04-27T05:01:49.983Z,1392.00
2019-04-27T05:02:49.189Z,1428.00
2019-04-27T05:03:48.865Z,1484.00
2019-04-27T05:04:49.170Z,1488.00
2019-04-27T05:05:50.043Z,1456.00
2019-04-27T05:06:49.201Z,1396.00
2019-04-27T05:07:48.599Z,1308.00
2019-04-27T05:08:49.414Z,1268.00
2019-04-27T05:09:48.606Z,1296.00
2019-04-27T05:10:49.735Z,1416.00
2019-04-27T05:11:48.651Z,1596.00
2019-04-27T05:12:48.618Z,1732.00
2019-04-27T05:13:49.429Z,1844.00
2019-04-27T05:14:48.924Z,1888.00
2019-04-27T05:15:48.723Z,1888.00
2019-04-27T05:16:48.950Z,1960.00
2019-04-27T05:17:48.414Z,2056.00
2019-04-27T05:18:49.503Z,2048.00
2019-04-27T05:19:49.128Z,2004.00
2019-04-27T05:20:48.671Z,1932.00
2019-04-27T05:21:49.175Z,1828.00
2019-04-27T05:22:49.140Z,1780.00
2019-04-27T05:23:48.703Z,1764.00
2019-04-27T05:24:49.314Z,1784.00
2019-04-27T05:25:49.289Z,1824.00
2019-04-27T05:26:48.732Z,1824.00
2019-04-27T05:27:49.413Z,1788.00
2019-04-27T05:28:49.167Z,1720.00
2019-04-27T05:29:48.820Z,1652.00
2019-04-27T05:30:48.966Z,1596.00
2019-04-27T05:31:49.032Z,1616.00
2019-04-27T05:32:49.465Z,1568.00
2019-04-27T05:33:49.048Z,1504.00
2019-04-27T05:34:49.419Z,1448.00
2019-04-27T05:35:49.181Z,1448.00
2019-04-27T05:36:50.304Z,1464.00
2019-04-27T05:37:49.189Z,1468.00
2019-04-27T05:38:49.666Z,1400.00
2019-04-27T05:39:48.716Z,1356.00
2019-04-27T05:40:49.714Z,1296.00
2019-04-27T05:41:49.670Z,1228.00
2019-04-27T05:42:50.499Z,1228.00
2019-04-27T05:43:49.153Z,1272.00
2019-04-27T05:44:48.981Z,1308.00
2019-04-27T05:45:48.810Z,1332.00
2019-04-27T05:46:49.299Z,1316.00
2019-04-27T05:47:51.677Z,1292.00
2019-04-27T05:48:48.850Z,1312.00
2019-04-27T05:49:48.518Z,1328.00
2019-04-27T05:50:51.517Z,1332.00
2019-04-27T05:51:50.127Z,1324.00
2019-04-27T05:52:49.511Z,1296.00
2019-04-27T05:53:49.455Z,1300.00
2019-04-27T05:54:48.883Z,1264.00
2019-04-27T05:55:49.389Z,1220.00
2019-04-27T05:56:49.200Z,1292.00
2019-04-27T05:57:49.028Z,1272.00
2019-04-27T05:58:49.103Z,1256.00
2019-04-27T05:59:47.599Z,1264.00
2019-04-27T06:00:49.455Z,1252.00
2019-04-27T06:01:49.200Z,1260.00
2019-04-27T06:02:48.721Z,1268.00
2019-04-27T06:03:47.548Z,1288.00
2019-04-27T06:04:49.381Z,1280.00
2019-04-27T06:05:48.922Z,1292.00
2019-04-27T06:06:47.513Z,1328.00
2019-04-27T06:07:48.795Z,1316.00
2019-04-27T06:08:49.359Z,1324.00
2019-04-27T06:09:49.207Z,1324.00
2019-04-27T06:10:48.892Z,1380.00
2019-04-27T06:11:48.644Z,1404.00
2019-04-27T06:12:48.587Z,1404.00
2019-04-27T06:13:48.826Z,1420.00
2019-04-27T06:14:47.417Z,1404.00
2019-04-27T06:15:47.423Z,1408.00
2019-04-27T06:16:51.054Z,1416.00
2019-04-27T06:17:48.447Z,1428.00
2019-04-27T06:18:49.194Z,1452.00
2019-04-27T06:19:49.211Z,1488.00
2019-04-27T06:20:53.259Z,1508.00
2019-04-27T06:21:50.003Z,1516.00
2019-04-27T06:22:48.933Z,1552.00
2019-04-27T06:23:48.770Z,1572.00
2019-04-27T06:24:52.289Z,1612.00
2019-04-27T06:25:49.223Z,1612.00
2019-04-27T06:26:47.293Z,1584.00
2019-04-27T06:27:47.297Z,1544.00
2019-04-27T06:28:47.268Z,1476.00
2019-04-27T06:29:48.995Z,1448.00
2019-04-27T06:30:49.145Z,1424.00
2019-04-27T06:31:47.271Z,1392.00
2019-04-27T06:32:47.264Z,1396.00
2019-04-27T06:33:47.219Z,1404.00
2019-04-27T06:34:48.922Z,1400.00
2019-04-27T06:35:47.191Z,1400.00
2019-04-27T06:36:48.661Z,1400.00
2019-04-27T06:37:47.183Z,1400.00
2019-04-27T06:38:48.565Z,1400.00
2019-04-27T06:39:47.208Z,1396.00
2019-04-27T06:40:48.949Z,1396.00
2019-04-27T06:41:48.926Z,1388.00
2019-04-27T06:42:48.604Z,1372.00
2019-04-27T06:43:47.114Z,1360.00
2019-04-27T06:44:47.118Z,1368.00
2019-04-27T06:45:48.746Z,1344.00
2019-04-27T06:46:48.876Z,1356.00
2019-04-27T06:47:48.824Z,1372.00
2019-04-27T06:48:47.077Z,1360.00
2019-04-27T06:49:47.060Z,1372.00
2019-04-27T06:50:47.056Z,1344.00
2019-04-27T06:51:47.031Z,1348.00
2019-04-27T06:52:47.004Z,1336.00
2019-04-27T06:53:47.004Z,1332.00
2019-04-27T06:54:48.570Z,1332.00
2019-04-27T06:55:46.975Z,1332.00
2019-04-27T06:56:48.473Z,1308.00
2019-04-27T06:57:48.912Z,1308.00
2019-04-27T06:58:46.941Z,1300.00
2019-04-27T06:59:48.355Z,1304.00
2019-04-27T07:00:46.947Z,1288.00
2019-04-27T07:01:48.645Z,1284.00
2019-04-27T07:02:46.949Z,1288.00
2019-04-27T07:03:48.588Z,1276.00
2019-04-27T07:04:46.884Z,1272.00
2019-04-27T07:05:48.611Z,1276.00
2019-04-27T07:06:54.030Z,1296.00
2019-04-27T07:07:48.982Z,1272.00
2019-04-27T07:08:46.839Z,1272.00
2019-04-27T07:09:46.829Z,1292.00
2019-04-27T07:10:46.853Z,1296.00
2019-04-27T07:11:46.834Z,1280.00
2019-04-27T07:12:48.944Z,1284.00
2019-04-27T07:13:46.780Z,1292.00
2019-04-27T07:14:52.824Z,1304.00
2019-04-27T07:15:48.567Z,1296.00
2019-04-27T07:16:46.753Z,1284.00
2019-04-27T07:17:48.675Z,1288.00
2019-04-27T07:18:46.738Z,1276.00
2019-04-27T07:19:46.718Z,1292.00
2019-04-27T07:20:48.473Z,1308.00
2019-04-27T07:21:46.718Z,1300.00
2019-04-27T07:22:46.677Z,1308.00
2019-04-27T07:23:46.701Z,1300.00
2019-04-27T07:24:46.662Z,1300.00
2019-04-27T07:25:46.646Z,1304.00
2019-04-27T07:26:46.658Z,1308.00
2019-04-27T07:27:46.623Z,1324.00
2019-04-27T07:28:46.617Z,1324.00
2019-04-27T07:29:46.627Z,1292.00
2019-04-27T07:30:46.595Z,1288.00
2019-04-27T07:31:46.583Z,1300.00
2019-04-27T07:32:46.572Z,1296.00
2019-04-27T07:33:46.591Z,1300.00
2019-04-27T07:34:46.586Z,1296.00
2019-04-27T07:35:46.537Z,1308.00
2019-04-27T07:36:46.531Z,1304.00
2019-04-27T07:37:46.513Z,1300.00
2019-04-27T07:38:46.536Z,1320.00
2019-04-27T07:39:46.492Z,1324.00
2019-04-27T07:40:46.519Z,1320.00
2019-04-27T07:41:46.486Z,1320.00
2019-04-27T07:42:46.465Z,1324.00
2019-04-27T07:43:46.455Z,1324.00
2019-04-27T07:44:46.466Z,1328.00
2019-04-27T07:45:46.425Z,1348.00
2019-04-27T07:46:46.462Z,1368.00
2019-04-27T07:47:46.409Z,1364.00
2019-04-27T07:48:46.395Z,1364.00
2019-04-27T07:49:46.384Z,1356.00
2019-04-27T07:50:46.409Z,1344.00
2019-04-27T07:51:46.378Z,1348.00
2019-04-27T07:52:46.378Z,1356.00
2019-04-27T07:53:46.344Z,1364.00
2019-04-27T07:54:46.334Z,1360.00
2019-04-27T07:55:46.334Z,1352.00
2019-04-27T07:56:46.333Z,1352.00
2019-04-27T07:57:46.302Z,1352.00
2019-04-27T07:58:46.291Z,1360.00
2019-04-27T07:59:46.281Z,1364.00
2019-04-27T08:00:46.353Z,1368.00
2019-04-27T08:01:46.274Z,1368.00
2019-04-27T08:02:46.282Z,1368.00
2019-04-27T08:03:46.238Z,1368.00
2019-04-27T08:04:47.976Z,1372.00
2019-04-27T08:05:46.222Z,1368.00
2019-04-27T08:06:46.201Z,1364.00
2019-04-27T08:07:46.197Z,1372.00
2019-04-27T08:08:46.218Z,1372.00
2019-04-27T08:09:46.169Z,1372.00
2019-04-27T08:10:47.800Z,1372.00
2019-04-27T08:11:46.175Z,1360.00
2019-04-27T08:12:46.222Z,1360.00
2019-04-27T08:13:46.154Z,1368.00
2019-04-27T08:14:46.216Z,1352.00
2019-04-27T08:15:46.197Z,1372.00
2019-04-27T08:16:46.096Z,1364.00
2019-04-27T08:17:46.093Z,1376.00
2019-04-27T08:18:46.142Z,1372.00
2019-04-27T08:19:46.070Z,1372.00
2019-04-27T08:20:46.072Z,1376.00
2019-04-27T08:21:46.615Z,1380.00
2019-04-27T08:22:46.042Z,1392.00
2019-04-27T08:23:46.024Z,1380.00
2019-04-27T08:24:46.059Z,1376.00
2019-04-27T08:25:46.029Z,1392.00
2019-04-27T08:26:45.995Z,1388.00
2019-04-27T08:27:46.036Z,1388.00
2019-04-27T08:28:45.969Z,1392.00
2019-04-27T08:29:45.985Z,1404.00
2019-04-27T08:30:45.993Z,1404.00
2019-04-27T08:31:45.948Z,1392.00
2019-04-27T08:32:45.961Z,1396.00
2019-04-27T08:33:46.139Z,1396.00
2019-04-27T08:34:45.905Z,1396.00
2019-04-27T08:35:46.024Z,1396.00
2019-04-27T08:36:45.990Z,1404.00
2019-04-27T08:37:45.870Z,1400.00
2019-04-27T08:38:45.863Z,1400.00
2019-04-27T08:39:45.898Z,1368.00
2019-04-27T08:40:45.873Z,1368.00
2019-04-27T08:41:45.841Z,1368.00
2019-04-27T08:42:45.857Z,1392.00
2019-04-27T08:43:45.804Z,1416.00
2019-04-27T08:44:45.794Z,1432.00
2019-04-27T08:45:45.832Z,1448.00
2019-04-27T08:46:45.776Z,1444.00
2019-04-27T08:47:45.854Z,1432.00
2019-04-27T08:48:45.915Z,1424.00
2019-04-27T08:49:45.762Z,1428.00
2019-04-27T08:50:45.744Z,1404.00
2019-04-27T08:51:56.325Z,1412.00
2019-04-27T08:52:46.723Z,1424.00
2019-04-27T08:53:45.703Z,1396.00
2019-04-27T08:54:45.785Z,1392.00
2019-04-27T08:55:45.682Z,1424.00
2019-04-27T08:56:45.673Z,1424.00
2019-04-27T08:57:45.836Z,1448.00
2019-04-27T08:58:45.646Z,1444.00
2019-04-27T08:59:45.653Z,1440.00
2019-04-27T09:00:46.053Z,1452.00
2019-04-27T09:01:45.665Z,1464.00
2019-04-27T09:02:47.405Z,1468.00
2019-04-27T09:03:45.597Z,1472.00
2019-04-27T09:04:45.602Z,1484.00
2019-04-27T09:05:45.574Z,1476.00
2019-04-27T09:06:45.611Z,1484.00
2019-04-27T09:07:45.556Z,1476.00
2019-04-27T09:08:45.555Z,1500.00
2019-04-27T09:09:45.572Z,1528.00
2019-04-27T09:10:45.544Z,1540.00
2019-04-27T09:11:45.514Z,1556.00
2019-04-27T09:12:45.586Z,1540.00
2019-04-27T09:13:45.499Z,1512.00
2019-04-27T09:14:45.525Z,1512.00
2019-04-27T09:15:45.464Z,1536.00
2019-04-27T09:16:58.002Z,1564.00
2019-04-27T09:17:46.501Z,1524.00
2019-04-27T09:18:45.438Z,1532.00
2019-04-27T09:19:45.474Z,1596.00
2019-04-27T09:20:45.430Z,1652.00
2019-04-27T09:21:45.405Z,1648.00
2019-04-27T09:22:45.390Z,1648.00
2019-04-27T09:23:45.483Z,1684.00
2019-04-27T09:24:45.375Z,1684.00
2019-04-27T09:25:45.425Z,1688.00
2019-04-27T09:26:45.352Z,1692.00
2019-04-27T09:27:45.341Z,1668.00
2019-04-27T09:28:45.372Z,1688.00
2019-04-27T09:29:45.349Z,1736.00
2019-04-27T09:30:45.305Z,1948.00
2019-04-27T09:31:45.322Z,1856.00
2019-04-27T09:32:45.289Z,1848.00
2019-04-27T09:33:45.273Z,2036.00
2019-04-27T09:34:46.678Z,2904.00
2019-04-27T09:35:46.630Z,4060.00
2019-04-27T09:36:45.912Z,3904.00
2019-04-27T09:37:45.902Z,2660.00
2019-04-27T09:38:46.478Z,2948.00
2019-04-27T09:39:46.078Z,4072.00
2019-04-27T09:40:46.601Z,4688.00
2019-04-27T09:41:45.979Z,4260.00
2019-04-27T09:42:46.378Z,3164.00
2019-04-27T09:43:46.605Z,2252.00
2019-04-27T09:44:45.696Z,1876.00
2019-04-27T09:45:47.095Z,1736.00
2019-04-27T09:46:45.146Z,2032.00
2019-04-27T09:47:46.859Z,1844.00
2019-04-27T09:48:46.604Z,1904.00
2019-04-27T09:49:46.125Z,2356.00
2019-04-27T09:50:46.620Z,2044.00
2019-04-27T09:51:46.016Z,2324.00
2019-04-27T09:52:45.918Z,2836.00
2019-04-27T09:53:45.848Z,2940.00
2019-04-27T09:54:45.054Z,3808.00
2019-04-27T09:55:46.754Z,4260.00
2019-04-27T09:56:46.602Z,4864.00
2019-04-27T09:57:46.485Z,4244.00
2019-04-27T09:58:45.010Z,4496.00
2019-04-27T09:59:46.058Z,4368.00
2019-04-27T10:00:45.689Z,3920.00
2019-04-27T10:01:46.494Z,2996.00
2019-04-27T10:02:46.600Z,2356.00
2019-04-27T10:03:46.346Z,2900.00
2019-04-27T10:04:46.181Z,2712.00
2019-04-27T10:05:45.965Z,2860.00
2019-04-27T10:06:46.192Z,3176.00
2019-04-27T10:07:45.719Z,2856.00
2019-04-27T10:08:44.911Z,2908.00
2019-04-27T10:09:45.514Z,4156.00
2019-04-27T10:10:45.999Z,6056.00
2019-04-27T10:11:44.898Z,5828.00
2019-04-27T10:12:46.496Z,4764.00
2019-04-27T10:13:46.437Z,3508.00
2019-04-27T10:14:45.463Z,2712.00
2019-04-27T10:15:45.933Z,2228.00
2019-04-27T10:16:46.743Z,2836.00
2019-04-27T10:17:44.826Z,3024.00
2019-04-27T10:18:45.862Z,2224.00
2019-04-27T10:19:46.168Z,1984.00
2019-04-27T10:20:58.310Z,2472.00
2019-04-27T10:21:46.748Z,2420.00
2019-04-27T10:22:46.398Z,2508.00
2019-04-27T10:23:46.853Z,3160.00
2019-04-27T10:24:44.734Z,3984.00
2019-04-27T10:25:45.789Z,4012.00
2019-04-27T10:26:44.758Z,4628.00
2019-04-27T10:27:45.814Z,4544.00
2019-04-27T10:28:45.827Z,3224.00
2019-04-27T10:29:46.616Z,2864.00
2019-04-27T10:30:45.779Z,2640.00
2019-04-27T10:31:46.357Z,2516.00
2019-04-27T10:32:46.176Z,1792.00
2019-04-27T10:33:45.859Z,2360.00
2019-04-27T10:34:44.878Z,2400.00
2019-04-27T10:35:44.615Z,2620.00
2019-04-27T10:36:46.093Z,2656.00
2019-04-27T10:37:44.601Z,2856.00
2019-04-27T10:38:45.808Z,2592.00
2019-04-27T10:39:45.978Z,1972.00
2019-04-27T10:40:44.648Z,1952.00
2019-04-27T10:41:46.164Z,2884.00
2019-04-27T10:42:45.904Z,3256.00
2019-04-27T10:43:44.529Z,3024.00
2019-04-27T10:44:46.177Z,2744.00
2019-04-27T10:45:46.292Z,2548.00
2019-04-27T10:46:44.515Z,2072.00
2019-04-27T10:47:46.045Z,1940.00
2019-04-27T10:48:45.695Z,1940.00
2019-04-27T10:49:46.596Z,2484.00
2019-04-27T10:50:44.452Z,2724.00
2019-04-27T10:51:45.669Z,2652.00
2019-04-27T10:52:53.331Z,2540.00
2019-04-27T10:53:45.749Z,2348.00
2019-04-27T10:54:44.431Z,3360.00
2019-04-27T10:55:46.230Z,4384.00
2019-04-27T10:56:45.954Z,5848.00
2019-04-27T10:57:44.400Z,6716.00
2019-04-27T10:58:45.670Z,6704.00
2019-04-27T10:59:46.046Z,5496.00
2019-04-27T11:00:44.352Z,5348.00
2019-04-27T11:01:45.954Z,4640.00
2019-04-27T11:02:44.320Z,3004.00
2019-04-27T11:03:46.173Z,3144.00
2019-04-27T11:04:46.113Z,3632.00
2019-04-27T11:05:45.953Z,3792.00
2019-04-27T11:06:44.285Z,2964.00
2019-04-27T11:07:44.267Z,2548.00
2019-04-27T11:08:44.266Z,2048.00
2019-04-27T11:09:44.275Z,2624.00
2019-04-27T11:10:46.027Z,3692.00
2019-04-27T11:11:46.257Z,4560.00
2019-04-27T11:12:45.767Z,4944.00
2019-04-27T11:13:46.064Z,4832.00
2019-04-27T11:14:44.209Z,3820.00
2019-04-27T11:15:46.122Z,3036.00
2019-04-27T11:16:45.793Z,2672.00
2019-04-27T11:17:47.269Z,2584.00
2019-04-27T11:18:44.158Z,2608.00
2019-04-27T11:19:45.938Z,2900.00
2019-04-27T11:20:44.157Z,3944.00
2019-04-27T11:21:44.148Z,4696.00
2019-04-27T11:22:44.155Z,4872.00
2019-04-27T11:23:45.874Z,3856.00
2019-04-27T11:24:45.849Z,3564.00
2019-04-27T11:25:44.082Z,3380.00
2019-04-27T11:26:44.066Z,3160.00
2019-04-27T11:27:44.097Z,3692.00
2019-04-27T11:28:44.048Z,4372.00
2019-04-27T11:29:44.034Z,5472.00
2019-04-27T11:30:44.023Z,6044.00
2019-04-27T11:31:44.003Z,7140.00
2019-04-27T11:32:43.995Z,7200.00
2019-04-27T11:33:44.030Z,6824.00
2019-04-27T11:34:45.840Z,4424.00
2019-04-27T11:35:43.964Z,3876.00
2019-04-27T11:36:45.611Z,4576.00
2019-04-27T11:37:45.521Z,6368.00
2019-04-27T11:38:44.214Z,6196.00
2019-04-27T11:39:44.407Z,4232.00
2019-04-27T11:40:44.131Z,3296.00
2019-04-27T11:41:43.961Z,2800.00
2019-04-27T11:42:43.885Z,2832.00
2019-04-27T11:43:43.975Z,3292.00
2019-04-27T11:44:43.874Z,5404.00
2019-04-27T11:45:45.769Z,7024.00
2019-04-27T11:46:45.523Z,8072.00
2019-04-27T11:47:43.834Z,6716.00
2019-04-27T11:48:43.826Z,5380.00
2019-04-27T11:49:45.600Z,4104.00
2019-04-27T11:50:45.713Z,4656.00
2019-04-27T11:51:43.831Z,4984.00
2019-04-27T11:52:45.510Z,5864.00
2019-04-27T11:53:44.781Z,7764.00
2019-04-27T11:54:45.649Z,7476.00
2019-04-27T11:55:43.745Z,8152.00
2019-04-27T11:56:43.738Z,7788.00
2019-04-27T11:57:43.830Z,6632.00
2019-04-27T11:58:43.709Z,6236.00
2019-04-27T11:59:43.710Z,6500.00
2019-04-27T12:00:43.779Z,5484.00
2019-04-27T12:01:43.682Z,4292.00
2019-04-27T12:02:45.627Z,4348.00
2019-04-27T12:03:43.693Z,4288.00
2019-04-27T12:04:43.651Z,4264.00
2019-04-27T12:05:43.656Z,3636.00
2019-04-27T12:06:43.633Z,3848.00
2019-04-27T12:07:43.622Z,4440.00
2019-04-27T12:08:43.657Z,4584.00
2019-04-27T12:09:43.626Z,4248.00
2019-04-27T12:10:43.584Z,3560.00
2019-04-27T12:11:43.621Z,3148.00
2019-04-27T12:12:43.567Z,3112.00
2019-04-27T12:13:43.565Z,3372.00
2019-04-27T12:14:43.564Z,3728.00
2019-04-27T12:15:43.571Z,5036.00
2019-04-27T12:16:43.518Z,5592.00
2019-04-27T12:17:43.544Z,5844.00
2019-04-27T12:18:43.596Z,4956.00
2019-04-27T12:19:43.495Z,4020.00
2019-04-27T12:20:43.477Z,4516.00
2019-04-27T12:21:43.518Z,4852.00
2019-04-27T12:22:43.469Z,4772.00
2019-04-27T12:23:43.481Z,5296.00
2019-04-27T12:24:43.434Z,5492.00
2019-04-27T12:25:43.434Z,4972.00
2019-04-27T12:26:43.451Z,4460.00
2019-04-27T12:27:43.448Z,4476.00
2019-04-27T12:28:43.418Z,4420.00